Time;durP1;ratioP1;P1;durP2;ratioP2;P2;SDS_P1;SDS_P2;PMS_P1;PMS_P2;Temp;Humidity;BMP_temperature;BMP_pressure;BME280_temperature;BME280_humidity;BME280_pressure;Samples;Min_cycle;Max_cycle;Signal;HPM_P1;HPM_P2
2024/02/11 00:00:34;;;;;;;;;;;10.30;79.00;;;;;;5015192;28;88425;-59
2024/02/11 00:03:01;;;;;;;;;;;10.30;79.30;;;;;;5019391;28;86949;-59
2024/02/11 00:05:27;;;;;;;;;;;10.40;79.30;;;;;;5016050;28;87424;-60
2024/02/11 00:07:53;;;;;;;;;;;10.30;79.00;;;;;;5016170;28;87053;-59
2024/02/11 00:10:18;;;;;;;;;;;10.30;79.00;;;;;;5016782;28;88083;-59
2024/02/11 00:12:44;;;;;;;;;;;10.30;78.80;;;;;;5016341;28;87708;-59
2024/02/11 00:15:10;;;;;;;;;;;10.30;78.70;;;;;;5019739;28;87156;-59
2024/02/11 00:17:36;;;;;;;;;;;10.30;78.90;;;;;;5016128;28;87863;-59
2024/02/11 00:20:02;;;;;;;;;;;10.30;78.90;;;;;;5018955;28;88571;-59
2024/02/11 00:22:28;;;;;;;;;;;10.40;79.00;;;;;;5016956;28;86964;-59
2024/02/11 00:24:54;;;;;;;;;;;10.30;79.00;;;;;;5021825;28;86923;-59
2024/02/11 00:27:20;;;;;;;;;;;10.30;78.90;;;;;;5016666;28;86953;-59
2024/02/11 00:29:46;;;;;;;;;;;10.30;78.80;;;;;;5019029;28;87035;-59
2024/02/11 00:32:12;;;;;;;;;;;10.30;78.90;;;;;;5019653;28;89151;-59
2024/02/11 00:34:38;;;;;;;;;;;10.30;78.90;;;;;;5017066;28;86300;-60
2024/02/11 00:37:06;;;;;;;;;;;10.30;78.90;;;;;;5018960;28;86882;-59
2024/02/11 00:39:35;;;;;;;;;;;10.30;78.70;;;;;;5016697;28;87667;-59
2024/02/11 00:42:00;;;;;;;;;;;10.30;78.90;;;;;;5018459;28;87974;-59
2024/02/11 00:44:26;;;;;;;;;;;10.30;78.70;;;;;;5017388;28;88815;-59
2024/02/11 00:46:51;;;;;;;;;;;10.30;78.80;;;;;;5017581;28;87660;-59
2024/02/11 00:49:18;;;;;;;;;;;10.30;78.90;;;;;;5015482;28;86941;-59
2024/02/11 00:51:43;;;;;;;;;;;10.30;78.50;;;;;;5017177;28;87642;-60
2024/02/11 00:54:09;;;;;;;;;;;10.30;78.60;;;;;;5017116;28;86961;-59
2024/02/11 00:56:34;;;;;;;;;;;10.30;78.50;;;;;;5018186;28;86884;-59
2024/02/11 00:59:00;;;;;;;;;;;10.30;78.30;;;;;;5016023;28;86283;-59
2024/02/11 01:01:26;;;;;;;;;;;10.30;78.70;;;;;;5019788;28;86965;-59
2024/02/11 01:03:56;;;;;;;;;;;10.30;78.50;;;;;;5017008;28;87183;-59
2024/02/11 01:06:25;;;;;;;;;;;10.30;78.70;;;;;;5016263;28;89682;-59
2024/02/11 01:08:51;;;;;;;;;;;10.30;78.20;;;;;;5020762;28;86980;-59
2024/02/11 01:11:19;;;;;;;;;;;10.30;78.20;;;;;;5016483;28;87442;-59
2024/02/11 01:13:45;;;;;;;;;;;10.30;78.10;;;;;;5018226;28;87081;-59
2024/02/11 01:16:11;;;;;;;;;;;10.30;77.90;;;;;;5016413;28;86916;-59
2024/02/11 01:18:36;;;;;;;;;;;10.30;78.00;;;;;;5017853;28;87385;-59
2024/02/11 01:21:05;;;;;;;;;;;10.30;78.30;;;;;;5016432;28;86977;-59
2024/02/11 01:23:31;;;;;;;;;;;10.30;78.30;;;;;;5018932;28;87069;-59
2024/02/11 01:25:56;;;;;;;;;;;10.30;78.20;;;;;;5013831;28;89944;-58
2024/02/11 01:28:22;;;;;;;;;;;10.30;78.00;;;;;;5015446;28;87077;-59
2024/02/11 01:30:48;;;;;;;;;;;10.30;78.00;;;;;;5017776;28;87845;-59
2024/02/11 01:33:14;;;;;;;;;;;10.30;77.80;;;;;;5018416;28;87174;-59
2024/02/11 01:35:41;;;;;;;;;;;10.30;77.90;;;;;;5015818;28;86851;-59
2024/02/11 01:38:10;;;;;;;;;;;10.30;78.00;;;;;;5014293;28;86862;-59
2024/02/11 01:40:36;;;;;;;;;;;10.30;77.70;;;;;;5014836;28;87087;-59
2024/02/11 01:43:09;;;;;;;;;;;10.30;77.70;;;;;;5015627;28;87990;-59
2024/02/11 01:45:37;;;;;;;;;;;10.30;77.40;;;;;;5011404;28;87330;-59
2024/02/11 01:48:08;;;;;;;;;;;10.30;77.70;;;;;;5012699;28;86233;-59
2024/02/11 01:50:35;;;;;;;;;;;10.30;77.50;;;;;;5016668;28;87199;-59
2024/02/11 01:53:02;;;;;;;;;;;10.30;77.60;;;;;;5019109;28;88498;-59
2024/02/11 01:55:27;;;;;;;;;;;10.30;77.40;;;;;;5018100;28;87810;-60
2024/02/11 01:57:53;;;;;;;;;;;10.30;77.70;;;;;;5016092;28;87386;-59
2024/02/11 02:00:19;;;;;;;;;;;10.30;77.60;;;;;;5014321;28;87410;-59
2024/02/11 02:02:45;;;;;;;;;;;10.30;77.70;;;;;;5017413;28;86970;-59
2024/02/11 02:05:11;;;;;;;;;;;10.30;77.70;;;;;;5015804;28;88621;-58
2024/02/11 02:07:38;;;;;;;;;;;10.30;77.90;;;;;;5014909;28;86945;-59
2024/02/11 02:10:04;;;;;;;;;;;10.30;77.60;;;;;;5015776;28;89610;-59
2024/02/11 02:12:30;;;;;;;;;;;10.30;77.60;;;;;;5018646;28;87994;-59
2024/02/11 02:14:56;;;;;;;;;;;10.30;77.80;;;;;;5017068;28;87158;-59
2024/02/11 02:17:22;;;;;;;;;;;10.30;77.80;;;;;;5015266;28;87284;-59
2024/02/11 02:19:47;;;;;;;;;;;10.30;78.40;;;;;;5016398;28;87902;-59
2024/02/11 02:22:13;;;;;;;;;;;10.30;77.70;;;;;;5015813;28;87874;-59
2024/02/11 02:24:38;;;;;;;;;;;10.30;77.60;;;;;;5016717;28;87313;-59
2024/02/11 02:27:07;;;;;;;;;;;10.30;78.00;;;;;;5018252;28;87931;-59
2024/02/11 02:29:33;;;;;;;;;;;10.30;77.30;;;;;;5015118;28;87031;-58
2024/02/11 02:31:58;;;;;;;;;;;10.30;77.20;;;;;;5017888;28;87675;-59
2024/02/11 02:34:24;;;;;;;;;;;10.30;77.00;;;;;;5017428;28;87000;-59
2024/02/11 02:36:50;;;;;;;;;;;10.30;76.80;;;;;;5017373;28;86858;-59
2024/02/11 02:39:16;;;;;;;;;;;10.30;76.60;;;;;;5015010;28;87634;-58
2024/02/11 02:41:42;;;;;;;;;;;10.30;76.50;;;;;;5016799;28;86968;-58
2024/02/11 02:44:07;;;;;;;;;;;10.20;76.20;;;;;;5013926;28;88403;-59
2024/02/11 02:46:33;;;;;;;;;;;10.30;76.50;;;;;;5016948;28;87412;-59
2024/02/11 02:48:59;;;;;;;;;;;10.20;76.30;;;;;;5015162;28;86799;-59
2024/02/11 02:51:24;;;;;;;;;;;10.20;76.40;;;;;;5013999;28;87512;-59
2024/02/11 02:53:50;;;;;;;;;;;10.20;76.30;;;;;;5014890;28;86988;-58
2024/02/11 02:56:17;;;;;;;;;;;10.20;76.40;;;;;;5019624;28;87049;-58
2024/02/11 02:58:43;;;;;;;;;;;10.20;76.30;;;;;;5013961;28;86947;-59
2024/02/11 03:01:08;;;;;;;;;;;10.20;76.40;;;;;;5015306;28;87902;-59
2024/02/11 03:03:52;;;;;;;;;;;10.20;76.30;;;;;;5013412;28;87460;-58
2024/02/11 03:06:19;;;;;;;;;;;10.30;76.40;;;;;;5018988;28;86906;-59
2024/02/11 03:08:44;;;;;;;;;;;10.20;76.10;;;;;;5012839;28;88412;-59
2024/02/11 03:11:10;;;;;;;;;;;10.20;76.20;;;;;;5019461;28;87441;-59
2024/02/11 03:13:36;;;;;;;;;;;10.20;76.30;;;;;;5015461;28;87037;-59
2024/02/11 03:16:01;;;;;;;;;;;10.30;76.50;;;;;;5019602;28;86972;-59
2024/02/11 03:18:27;;;;;;;;;;;10.20;76.30;;;;;;5021362;28;87180;-59
2024/02/11 03:20:53;;;;;;;;;;;10.20;76.20;;;;;;5015487;28;88095;-59
2024/02/11 03:23:18;;;;;;;;;;;10.20;76.30;;;;;;5018084;28;87356;-58
2024/02/11 03:25:44;;;;;;;;;;;10.20;76.20;;;;;;5020156;28;86431;-59
2024/02/11 03:28:11;;;;;;;;;;;10.20;76.10;;;;;;5015628;28;86873;-59
2024/02/11 03:30:37;;;;;;;;;;;10.20;76.00;;;;;;5018789;28;87483;-59
2024/02/11 03:33:02;;;;;;;;;;;10.20;76.20;;;;;;5018158;28;87923;-59
2024/02/11 03:35:28;;;;;;;;;;;10.20;76.20;;;;;;5019026;28;88799;-59
2024/02/11 03:37:53;;;;;;;;;;;10.20;76.20;;;;;;5018264;28;87417;-59
2024/02/11 03:40:19;;;;;;;;;;;10.20;76.30;;;;;;5021893;28;86854;-59
2024/02/11 03:42:45;;;;;;;;;;;10.20;76.60;;;;;;5017704;28;87653;-59
2024/02/11 03:45:11;;;;;;;;;;;10.20;76.50;;;;;;5015181;28;87005;-59
2024/02/11 03:47:38;;;;;;;;;;;10.20;76.50;;;;;;5018293;28;87734;-57
2024/02/11 03:50:04;;;;;;;;;;;10.20;76.40;;;;;;5017319;28;87824;-59
2024/02/11 03:52:30;;;;;;;;;;;10.20;76.50;;;;;;5015378;28;87067;-59
2024/02/11 03:54:56;;;;;;;;;;;10.20;76.40;;;;;;5018847;28;86747;-59
2024/02/11 03:57:22;;;;;;;;;;;10.20;76.40;;;;;;5016381;28;89428;-59
2024/02/11 03:59:49;;;;;;;;;;;10.20;76.10;;;;;;5016386;28;87002;-57
2024/02/11 04:02:14;;;;;;;;;;;10.20;76.10;;;;;;5019588;28;89543;-59
2024/02/11 04:04:40;;;;;;;;;;;10.20;75.90;;;;;;5018539;28;87005;-59
2024/02/11 04:07:10;;;;;;;;;;;10.20;76.70;;;;;;5018511;28;87204;-59
2024/02/11 04:09:39;;;;;;;;;;;10.20;76.30;;;;;;5018681;28;88456;-59
2024/02/11 04:12:08;;;;;;;;;;;10.20;76.20;;;;;;5015371;28;87016;-59
2024/02/11 04:14:34;;;;;;;;;;;10.20;76.00;;;;;;5017112;28;87813;-59
2024/02/11 04:17:02;;;;;;;;;;;10.20;76.20;;;;;;5019307;28;88695;-59
2024/02/11 04:19:32;;;;;;;;;;;10.20;76.20;;;;;;5016083;28;87209;-59
2024/02/11 04:22:00;;;;;;;;;;;10.20;76.50;;;;;;5018400;28;87941;-59
2024/02/11 04:24:28;;;;;;;;;;;10.20;76.40;;;;;;5019391;28;87200;-59
2024/02/11 04:26:58;;;;;;;;;;;10.20;76.40;;;;;;5019828;28;87938;-60
2024/02/11 04:29:23;;;;;;;;;;;10.20;76.20;;;;;;5015861;28;87359;-58
2024/02/11 04:31:50;;;;;;;;;;;10.20;76.50;;;;;;5017477;28;86881;-59
2024/02/11 04:34:17;;;;;;;;;;;10.20;76.50;;;;;;5017950;28;88376;-60
2024/02/11 04:36:43;;;;;;;;;;;10.20;76.60;;;;;;5017619;28;87441;-59
2024/02/11 04:39:09;;;;;;;;;;;10.20;76.20;;;;;;5018408;28;86331;-59
2024/02/11 04:41:36;;;;;;;;;;;10.20;76.40;;;;;;5017459;28;86866;-59
2024/02/11 04:44:03;;;;;;;;;;;10.20;76.50;;;;;;5018123;28;87279;-59
2024/02/11 04:46:29;;;;;;;;;;;10.20;76.40;;;;;;5012552;28;88541;-59
2024/02/11 04:48:56;;;;;;;;;;;10.20;76.70;;;;;;5016749;28;88507;-59
2024/02/11 04:51:22;;;;;;;;;;;10.20;76.70;;;;;;5018341;28;86963;-59
2024/02/11 04:53:48;;;;;;;;;;;10.20;76.50;;;;;;5016752;28;87810;-59
2024/02/11 04:56:17;;;;;;;;;;;10.20;76.60;;;;;;5017961;28;87419;-59
2024/02/11 04:58:44;;;;;;;;;;;10.20;76.60;;;;;;5016107;28;87015;-59
2024/02/11 05:01:09;;;;;;;;;;;10.20;76.20;;;;;;5018665;28;87965;-59
2024/02/11 05:03:35;;;;;;;;;;;10.20;76.10;;;;;;5013544;28;87797;-59
2024/02/11 05:06:01;;;;;;;;;;;10.20;76.20;;;;;;5018430;28;87687;-59
2024/02/11 05:08:27;;;;;;;;;;;10.20;76.40;;;;;;5015383;28;88518;-60
2024/02/11 05:10:53;;;;;;;;;;;10.20;76.30;;;;;;5017765;28;87934;-59
2024/02/11 05:13:18;;;;;;;;;;;10.20;76.20;;;;;;5015870;28;88851;-59
2024/02/11 05:15:48;;;;;;;;;;;10.20;76.00;;;;;;5018309;28;87418;-59
2024/02/11 05:18:18;;;;;;;;;;;10.20;76.20;;;;;;5015492;28;87054;-59
2024/02/11 05:20:44;;;;;;;;;;;10.20;76.20;;;;;;5013793;28;88052;-59
2024/02/11 05:23:10;;;;;;;;;;;10.20;76.10;;;;;;5017203;28;87533;-59
2024/02/11 05:25:36;;;;;;;;;;;10.20;76.20;;;;;;5014835;28;86995;-59
2024/02/11 05:28:03;;;;;;;;;;;10.20;76.20;;;;;;5017801;28;86628;-59
2024/02/11 05:30:29;;;;;;;;;;;10.20;76.30;;;;;;5015316;28;86874;-59
2024/02/11 05:32:57;;;;;;;;;;;10.20;76.20;;;;;;5018298;28;88050;-58
2024/02/11 05:35:23;;;;;;;;;;;10.20;76.10;;;;;;5013727;28;87808;-59
2024/02/11 05:37:57;;;;;;;;;;;10.20;76.00;;;;;;5010332;28;87018;-59
2024/02/11 05:40:23;;;;;;;;;;;10.20;76.50;;;;;;5013489;28;87028;-60
2024/02/11 05:42:49;;;;;;;;;;;10.20;76.30;;;;;;5014655;28;87443;-59
2024/02/11 05:45:16;;;;;;;;;;;10.20;76.40;;;;;;5019664;28;86946;-59
2024/02/11 05:47:42;;;;;;;;;;;10.20;76.20;;;;;;5009274;28;87653;-59
2024/02/11 05:50:08;;;;;;;;;;;10.20;76.40;;;;;;5017220;28;88430;-58
2024/02/11 05:52:34;;;;;;;;;;;10.20;76.30;;;;;;5017558;28;87761;-59
2024/02/11 05:55:00;;;;;;;;;;;10.20;76.20;;;;;;5014577;28;86942;-59
2024/02/11 05:57:26;;;;;;;;;;;10.20;76.20;;;;;;5017111;28;86947;-56
2024/02/11 05:59:52;;;;;;;;;;;10.20;76.10;;;;;;5017026;28;87963;-59
2024/02/11 06:02:17;;;;;;;;;;;10.20;76.20;;;;;;5014422;28;87378;-59
2024/02/11 06:04:43;;;;;;;;;;;10.20;76.20;;;;;;5016321;28;87399;-59
2024/02/11 06:07:11;;;;;;;;;;;10.20;76.00;;;;;;5013115;28;86955;-58
2024/02/11 06:09:39;;;;;;;;;;;10.20;75.90;;;;;;5017122;28;87383;-59
2024/02/11 06:12:06;;;;;;;;;;;10.20;76.20;;;;;;5018063;28;86995;-59
2024/02/11 06:14:33;;;;;;;;;;;10.20;76.40;;;;;;5017506;28;87666;-59
2024/02/11 06:16:58;;;;;;;;;;;10.20;76.40;;;;;;5015452;28;86336;-58
2024/02/11 06:19:24;;;;;;;;;;;10.20;76.30;;;;;;5015609;28;86858;-59
2024/02/11 06:21:51;;;;;;;;;;;10.20;76.40;;;;;;5014814;28;87551;-59
2024/02/11 06:24:16;;;;;;;;;;;10.20;76.10;;;;;;5012630;28;88028;-59
2024/02/11 06:26:42;;;;;;;;;;;10.20;76.10;;;;;;5017794;28;87302;-59
2024/02/11 06:29:08;;;;;;;;;;;10.20;76.30;;;;;;5014844;28;87438;-59
2024/02/11 06:31:34;;;;;;;;;;;10.20;76.20;;;;;;5013621;28;87251;-59
2024/02/11 06:34:00;;;;;;;;;;;10.20;76.20;;;;;;5014445;28;87534;-58
2024/02/11 06:36:26;;;;;;;;;;;10.20;76.10;;;;;;5018232;28;87386;-59
2024/02/11 06:38:52;;;;;;;;;;;10.20;76.50;;;;;;5018875;28;87868;-59
2024/02/11 06:41:18;;;;;;;;;;;10.20;76.10;;;;;;5017533;28;87707;-59
2024/02/11 06:43:43;;;;;;;;;;;10.20;76.30;;;;;;5021143;28;87037;-59
2024/02/11 06:46:09;;;;;;;;;;;10.20;76.40;;;;;;5015643;28;86823;-59
2024/02/11 06:48:35;;;;;;;;;;;10.20;76.40;;;;;;5016828;28;88262;-58
2024/02/11 06:51:01;;;;;;;;;;;10.20;76.30;;;;;;5015968;28;87117;-59
2024/02/11 06:53:29;;;;;;;;;;;10.20;76.30;;;;;;5023995;28;88100;-59
2024/02/11 06:55:54;;;;;;;;;;;10.20;76.30;;;;;;5021521;28;87042;-59
2024/02/11 06:58:20;;;;;;;;;;;10.30;76.30;;;;;;5016968;28;87892;-59
2024/02/11 07:00:46;;;;;;;;;;;10.30;76.50;;;;;;5016613;28;86913;-59
2024/02/11 07:03:11;;;;;;;;;;;10.30;76.50;;;;;;5014248;28;86988;-59
2024/02/11 07:05:39;;;;;;;;;;;10.30;76.50;;;;;;5015925;28;86989;-59
2024/02/11 07:08:06;;;;;;;;;;;10.30;76.50;;;;;;5009408;28;89259;-58
2024/02/11 07:10:32;;;;;;;;;;;10.30;76.70;;;;;;5023740;28;86744;-59
2024/02/11 07:12:58;;;;;;;;;;;10.30;76.50;;;;;;5016948;28;87904;-59
2024/02/11 07:15:25;;;;;;;;;;;10.30;76.80;;;;;;5020145;28;87373;-59
2024/02/11 07:17:50;;;;;;;;;;;10.30;76.10;;;;;;5017060;28;87819;-59
2024/02/11 07:20:16;;;;;;;;;;;10.30;76.40;;;;;;5014575;28;87802;-59
2024/02/11 07:22:43;;;;;;;;;;;10.30;76.90;;;;;;5020433;28;87081;-59
2024/02/11 07:25:09;;;;;;;;;;;10.30;77.50;;;;;;5012783;28;87662;-59
2024/02/11 07:27:34;;;;;;;;;;;10.30;77.10;;;;;;5017258;28;86887;-59
2024/02/11 07:30:00;;;;;;;;;;;10.30;77.20;;;;;;5021351;28;86266;-59
2024/02/11 07:32:26;;;;;;;;;;;10.30;77.00;;;;;;5016939;28;86936;-59
2024/02/11 07:34:56;;;;;;;;;;;10.30;77.00;;;;;;5019956;28;87482;-59
2024/02/11 07:37:22;;;;;;;;;;;10.40;77.90;;;;;;5012005;28;88077;-59
2024/02/11 07:39:47;;;;;;;;;;;10.30;77.40;;;;;;5016338;28;87299;-59
2024/02/11 07:42:13;;;;;;;;;;;10.40;77.20;;;;;;5020566;28;87025;-59
2024/02/11 07:44:41;;;;;;;;;;;10.30;77.70;;;;;;5019439;28;86897;-59
2024/02/11 07:47:07;;;;;;;;;;;10.40;78.00;;;;;;5018088;28;87461;-59
2024/02/11 07:49:33;;;;;;;;;;;10.30;77.10;;;;;;5017990;28;87161;-55
2024/02/11 07:51:59;;;;;;;;;;;10.40;77.50;;;;;;5019108;28;86845;-59
2024/02/11 07:54:24;;;;;;;;;;;10.40;78.10;;;;;;5018139;28;86794;-59
2024/02/11 07:56:50;;;;;;;;;;;10.40;77.80;;;;;;5014834;28;87667;-59
2024/02/11 07:59:16;;;;;;;;;;;10.40;77.60;;;;;;5016694;28;86954;-59
2024/02/11 08:01:42;;;;;;;;;;;10.40;77.40;;;;;;5018315;28;87873;-59
2024/02/11 08:04:09;;;;;;;;;;;10.40;77.80;;;;;;5017664;28;87967;-57
2024/02/11 08:06:35;;;;;;;;;;;10.40;78.50;;;;;;5018026;28;88544;-59
2024/02/11 08:09:01;;;;;;;;;;;10.40;78.80;;;;;;5016342;28;87050;-59
2024/02/11 08:11:29;;;;;;;;;;;10.40;79.00;;;;;;5016925;28;87845;-59
2024/02/11 08:13:55;;;;;;;;;;;10.40;79.00;;;;;;5014180;28;87475;-59
2024/02/11 08:16:22;;;;;;;;;;;10.40;79.00;;;;;;5015716;28;86921;-58
2024/02/11 08:18:51;;;;;;;;;;;10.40;78.70;;;;;;5018786;28;87864;-59
2024/02/11 08:21:16;;;;;;;;;;;10.40;78.50;;;;;;5015629;28;86919;-59
2024/02/11 08:23:42;;;;;;;;;;;10.50;78.50;;;;;;5018883;28;87059;-59
2024/02/11 08:26:07;;;;;;;;;;;10.50;78.30;;;;;;5013249;28;89416;-59
2024/02/11 08:28:33;;;;;;;;;;;10.50;78.80;;;;;;5018782;28;86932;-59
2024/02/11 08:30:59;;;;;;;;;;;10.50;78.80;;;;;;5015522;28;87671;-59
2024/02/11 08:33:24;;;;;;;;;;;10.50;78.40;;;;;;5017127;28;87524;-59
2024/02/11 08:35:52;;;;;;;;;;;10.50;78.70;;;;;;5009974;28;88137;-59
2024/02/11 08:38:18;;;;;;;;;;;10.50;78.10;;;;;;5015947;28;86919;-59
2024/02/11 08:40:44;;;;;;;;;;;10.50;78.50;;;;;;5020375;28;87464;-59
2024/02/11 08:43:09;;;;;;;;;;;10.50;79.30;;;;;;5017331;28;86769;-59
2024/02/11 08:45:36;;;;;;;;;;;10.50;79.00;;;;;;5012409;28;86939;-59
2024/02/11 08:48:01;;;;;;;;;;;10.50;78.90;;;;;;5018520;28;87012;-60
2024/02/11 08:50:27;;;;;;;;;;;10.50;79.20;;;;;;5012608;28;87927;-59
2024/02/11 08:52:53;;;;;;;;;;;10.50;78.90;;;;;;5020615;28;88489;-59
2024/02/11 08:55:19;;;;;;;;;;;10.50;79.00;;;;;;5014752;28;87000;-59
2024/02/11 08:57:47;;;;;;;;;;;10.50;79.00;;;;;;5012280;28;86965;-59
2024/02/11 09:00:18;;;;;;;;;;;10.60;79.20;;;;;;5012209;28;88506;-59
2024/02/11 09:02:44;;;;;;;;;;;10.50;78.90;;;;;;5022084;28;87119;-59
2024/02/11 09:05:09;;;;;;;;;;;10.50;79.10;;;;;;5014957;28;88710;-59
2024/02/11 09:07:37;;;;;;;;;;;10.60;79.30;;;;;;5015656;27;86288;-59
2024/02/11 09:10:03;;;;;;;;;;;10.60;79.20;;;;;;5015947;28;86920;-59
2024/02/11 09:12:29;;;;;;;;;;;10.60;78.90;;;;;;5016644;28;87442;-59
2024/02/11 09:14:54;;;;;;;;;;;10.60;78.70;;;;;;5010436;28;87923;-59
2024/02/11 09:17:20;;;;;;;;;;;10.60;79.00;;;;;;5015611;28;87110;-59
2024/02/11 09:19:46;;;;;;;;;;;10.60;79.10;;;;;;5018784;28;88029;-60
2024/02/11 09:22:12;;;;;;;;;;;10.60;78.80;;;;;;5015376;28;86871;-60
2024/02/11 09:24:38;;;;;;;;;;;10.60;79.10;;;;;;5021216;28;87844;-60
2024/02/11 09:27:07;;;;;;;;;;;10.60;79.10;;;;;;5015292;28;87053;-59
2024/02/11 09:29:33;;;;;;;;;;;10.60;79.20;;;;;;5016861;28;86911;-60
2024/02/11 09:31:58;;;;;;;;;;;10.60;79.10;;;;;;5015441;28;86790;-59
2024/02/11 09:34:24;;;;;;;;;;;10.60;79.20;;;;;;5015482;28;87598;-59
2024/02/11 09:36:53;;;;;;;;;;;10.60;79.00;;;;;;5014929;28;87671;-59
2024/02/11 09:39:18;;;;;;;;;;;10.60;79.00;;;;;;5013678;28;91004;-58
2024/02/11 09:41:45;;;;;;;;;;;10.60;79.00;;;;;;5015730;28;87022;-59
2024/02/11 09:44:12;;;;;;;;;;;10.60;79.00;;;;;;5017227;28;87963;-59
2024/02/11 09:46:40;;;;;;;;;;;10.60;78.90;;;;;;5016803;28;87516;-58
2024/02/11 09:49:11;;;;;;;;;;;10.60;79.00;;;;;;5012438;28;86937;-59
2024/02/11 09:51:36;;;;;;;;;;;10.60;79.00;;;;;;5016124;28;87528;-59
2024/02/11 09:54:02;;;;;;;;;;;10.60;78.90;;;;;;5008375;28;87993;-59
2024/02/11 09:56:28;;;;;;;;;;;10.60;79.00;;;;;;5016588;28;87760;-59
2024/02/11 09:58:55;;;;;;;;;;;10.60;78.90;;;;;;5015797;28;87637;-59
2024/02/11 10:01:21;;;;;;;;;;;10.70;78.90;;;;;;5017305;28;87007;-59
2024/02/11 10:03:50;;;;;;;;;;;10.70;78.80;;;;;;5014187;28;87943;-59
2024/02/11 10:06:17;;;;;;;;;;;10.70;78.60;;;;;;5013635;28;86918;-59
2024/02/11 10:08:45;;;;;;;;;;;10.70;78.70;;;;;;5016998;28;86754;-59
2024/02/11 10:11:13;;;;;;;;;;;10.70;78.90;;;;;;5014510;28;88556;-59
2024/02/11 10:13:39;;;;;;;;;;;10.70;78.60;;;;;;5011868;28;86954;-59
2024/02/11 10:16:07;;;;;;;;;;;10.70;79.30;;;;;;5016152;28;86961;-59
2024/02/11 10:18:33;;;;;;;;;;;10.70;78.90;;;;;;5013279;28;88924;-59
2024/02/11 10:20:59;;;;;;;;;;;10.70;78.90;;;;;;5014933;28;86227;-59
2024/02/11 10:23:24;;;;;;;;;;;10.70;78.70;;;;;;5018278;28;86882;-59
2024/02/11 10:25:50;;;;;;;;;;;10.70;78.90;;;;;;5013993;28;88626;-59
2024/02/11 10:28:17;;;;;;;;;;;10.70;78.70;;;;;;5020265;28;87852;-60
2024/02/11 10:30:43;;;;;;;;;;;10.70;78.80;;;;;;5014160;28;88985;-56
2024/02/11 10:33:09;;;;;;;;;;;10.70;78.70;;;;;;5018071;28;86812;-59
2024/02/11 10:35:35;;;;;;;;;;;10.70;78.80;;;;;;5014348;28;87068;-59
2024/02/11 10:38:04;;;;;;;;;;;10.70;78.90;;;;;;5017203;28;87538;-59
2024/02/11 10:40:31;;;;;;;;;;;10.70;78.90;;;;;;5014853;28;86976;-59
2024/02/11 10:42:57;;;;;;;;;;;10.70;78.70;;;;;;5016071;28;87050;-59
2024/02/11 10:45:25;;;;;;;;;;;10.70;79.00;;;;;;5011478;28;86791;-59
2024/02/11 10:47:50;;;;;;;;;;;10.70;78.80;;;;;;5016676;28;86980;-59
2024/02/11 10:50:17;;;;;;;;;;;10.80;78.80;;;;;;5021978;28;87297;-59
2024/02/11 10:52:43;;;;;;;;;;;10.80;78.80;;;;;;5014056;28;87953;-59
2024/02/11 10:55:12;;;;;;;;;;;10.80;78.80;;;;;;5010250;28;87830;-59
2024/02/11 10:57:53;;;;;;;;;;;10.80;79.00;;;;;;5013832;28;87485;-60
2024/02/11 11:00:20;;;;;;;;;;;10.80;78.80;;;;;;5014117;28;86992;-59
2024/02/11 11:02:48;;;;;;;;;;;10.70;78.60;;;;;;5016351;28;86868;-59
2024/02/11 11:05:17;;;;;;;;;;;10.80;78.70;;;;;;5016896;28;87749;-60
2024/02/11 11:07:46;;;;;;;;;;;10.80;78.70;;;;;;5012465;28;86994;-60
2024/02/11 11:10:12;;;;;;;;;;;10.80;78.70;;;;;;5012868;28;88053;-58
2024/02/11 11:12:44;;;;;;;;;;;10.80;78.70;;;;;;5019058;28;86909;-60
2024/02/11 11:15:11;;;;;;;;;;;10.80;78.50;;;;;;5012117;28;86920;-59
2024/02/11 11:17:36;;;;;;;;;;;10.80;78.70;;;;;;5008776;28;89613;-60
2024/02/11 11:20:12;;;;;;;;;;;10.80;78.80;;;;;;5013136;28;87031;-58
2024/02/11 11:22:38;;;;;;;;;;;10.80;78.80;;;;;;5019894;28;87831;-59
2024/02/11 11:25:10;;;;;;;;;;;10.80;78.70;;;;;;5014591;28;87495;-59
2024/02/11 11:27:36;;;;;;;;;;;10.80;78.70;;;;;;5011244;28;87122;-59
2024/02/11 11:30:02;;;;;;;;;;;10.80;78.70;;;;;;5017706;28;86954;-59
2024/02/11 11:32:28;;;;;;;;;;;10.80;78.80;;;;;;5020427;28;87520;-59
2024/02/11 11:34:54;;;;;;;;;;;10.80;78.70;;;;;;5021874;28;86265;-59
2024/02/11 11:37:20;;;;;;;;;;;10.80;78.80;;;;;;5015046;28;87175;-59
2024/02/11 11:39:45;;;;;;;;;;;10.80;78.90;;;;;;5013810;28;86992;-60
2024/02/11 11:42:12;;;;;;;;;;;10.90;78.80;;;;;;5016698;28;90923;-59
2024/02/11 11:44:38;;;;;;;;;;;10.90;78.90;;;;;;5019888;28;87260;-59
2024/02/11 11:47:05;;;;;;;;;;;10.90;78.90;;;;;;5017521;28;86975;-58
2024/02/11 11:49:32;;;;;;;;;;;10.90;78.80;;;;;;5020615;28;87990;-59
2024/02/11 11:51:58;;;;;;;;;;;10.80;79.00;;;;;;5019152;28;87638;-59
2024/02/11 11:54:30;;;;;;;;;;;10.90;79.10;;;;;;5016568;28;87083;-59
2024/02/11 11:56:56;;;;;;;;;;;10.90;79.10;;;;;;5016900;28;87036;-59
2024/02/11 11:59:21;;;;;;;;;;;10.90;79.00;;;;;;5018833;28;86193;-59
2024/02/11 12:01:47;;;;;;;;;;;10.90;79.00;;;;;;5018932;28;86983;-59
2024/02/11 12:04:14;;;;;;;;;;;10.90;79.00;;;;;;5019594;28;87561;-59
2024/02/11 12:06:40;;;;;;;;;;;10.90;79.00;;;;;;5015360;28;87968;-59
2024/02/11 12:09:06;;;;;;;;;;;10.90;79.10;;;;;;5013702;28;88851;-59
2024/02/11 12:11:31;;;;;;;;;;;10.90;79.20;;;;;;5012001;28;86942;-59
2024/02/11 12:13:57;;;;;;;;;;;10.90;79.20;;;;;;5016433;28;86978;-59
2024/02/11 12:16:24;;;;;;;;;;;10.90;79.20;;;;;;5016361;28;86979;-59
2024/02/11 12:18:50;;;;;;;;;;;10.90;79.10;;;;;;5020629;28;88523;-59
2024/02/11 12:21:19;;;;;;;;;;;10.90;79.20;;;;;;5015228;28;87012;-60
2024/02/11 12:23:45;;;;;;;;;;;10.90;79.10;;;;;;5021412;28;87755;-60
2024/02/11 12:26:11;;;;;;;;;;;11.00;79.10;;;;;;5018936;28;87219;-59
2024/02/11 12:28:41;;;;;;;;;;;11.00;79.30;;;;;;5017313;28;87093;-59
2024/02/11 12:31:10;;;;;;;;;;;11.00;79.40;;;;;;5018394;28;89523;-60
2024/02/11 12:33:37;;;;;;;;;;;11.00;79.40;;;;;;5015584;28;86971;-59
2024/02/11 12:36:06;;;;;;;;;;;11.00;79.40;;;;;;5016201;28;88008;-59
2024/02/11 12:38:32;;;;;;;;;;;11.00;79.30;;;;;;5021768;28;88475;-59
2024/02/11 12:40:58;;;;;;;;;;;11.00;79.30;;;;;;5015910;28;88516;-59
2024/02/11 12:43:23;;;;;;;;;;;11.00;79.90;;;;;;5019515;28;86671;-59
2024/02/11 12:45:49;;;;;;;;;;;11.00;79.40;;;;;;5014669;28;86992;-59
2024/02/11 12:48:15;;;;;;;;;;;11.00;79.40;;;;;;5014223;28;86860;-58
2024/02/11 12:50:41;;;;;;;;;;;11.10;79.40;;;;;;5015894;28;88627;-59
2024/02/11 12:53:06;;;;;;;;;;;11.10;79.60;;;;;;5019143;28;87016;-59
2024/02/11 12:55:32;;;;;;;;;;;11.00;79.60;;;;;;5017194;28;87982;-59
2024/02/11 12:57:58;;;;;;;;;;;11.00;79.50;;;;;;5012977;28;87635;-59
2024/02/11 13:00:23;;;;;;;;;;;11.10;79.70;;;;;;5018587;28;86912;-58
2024/02/11 13:02:49;;;;;;;;;;;11.00;79.60;;;;;;5015230;28;88402;-59
2024/02/11 13:05:14;;;;;;;;;;;11.10;79.70;;;;;;5015365;28;86958;-60
2024/02/11 13:07:40;;;;;;;;;;;11.10;79.60;;;;;;5015307;28;87024;-59
2024/02/11 13:10:08;;;;;;;;;;;11.10;79.50;;;;;;5014949;28;87509;-59
2024/02/11 13:12:38;;;;;;;;;;;11.10;79.50;;;;;;5015454;28;86880;-59
2024/02/11 13:15:10;;;;;;;;;;;11.10;79.50;;;;;;5012986;28;87009;-59
2024/02/11 13:17:47;;;;;;;;;;;11.10;79.50;;;;;;5016550;28;88536;-59
2024/02/11 13:20:13;;;;;;;;;;;11.10;79.60;;;;;;5018308;28;87955;-59
2024/02/11 13:22:39;;;;;;;;;;;11.10;79.70;;;;;;5017761;28;88894;-59
2024/02/11 13:25:10;;;;;;;;;;;11.10;79.60;;;;;;5018771;28;86987;-59
2024/02/11 13:27:41;;;;;;;;;;;11.10;79.70;;;;;;5013833;28;87891;-59
2024/02/11 13:30:07;;;;;;;;;;;11.10;79.60;;;;;;5015601;28;87440;-59
2024/02/11 13:32:33;;;;;;;;;;;11.10;79.80;;;;;;5011887;28;87237;-59
2024/02/11 13:34:59;;;;;;;;;;;11.10;79.60;;;;;;5016113;28;88248;-59
2024/02/11 13:37:25;;;;;;;;;;;11.10;79.70;;;;;;5015882;28;87807;-59
2024/02/11 13:39:52;;;;;;;;;;;11.10;79.60;;;;;;5016647;28;87077;-59
2024/02/11 13:42:18;;;;;;;;;;;11.10;79.70;;;;;;5020837;28;87668;-59
2024/02/11 13:44:44;;;;;;;;;;;11.10;79.50;;;;;;5016825;28;89451;-59
2024/02/11 13:47:10;;;;;;;;;;;11.10;79.60;;;;;;5014903;28;87730;-59
2024/02/11 13:49:36;;;;;;;;;;;11.10;79.60;;;;;;5014376;28;88525;-60
2024/02/11 13:52:02;;;;;;;;;;;11.10;79.70;;;;;;5017005;28;87449;-60
2024/02/11 13:54:28;;;;;;;;;;;11.10;79.60;;;;;;5016666;28;86872;-59
2024/02/11 13:56:54;;;;;;;;;;;11.20;79.50;;;;;;5016790;28;87415;-59
2024/02/11 13:59:19;;;;;;;;;;;11.10;79.60;;;;;;5016585;28;86985;-59
2024/02/11 14:01:49;;;;;;;;;;;11.10;79.60;;;;;;5017577;28;86707;-59
2024/02/11 14:04:16;;;;;;;;;;;11.20;79.40;;;;;;5016165;28;88429;-57
2024/02/11 14:06:42;;;;;;;;;;;11.20;79.30;;;;;;5015613;28;86893;-59
2024/02/11 14:09:08;;;;;;;;;;;11.20;79.40;;;;;;5015110;28;88399;-59
2024/02/11 14:11:34;;;;;;;;;;;11.20;79.40;;;;;;5016737;28;87051;-59